sensor_id;sensor_type;location;lat;lon;timestamp;P1;durP1;ratioP1;P2;durP2;ratioP2
78670;SDS011;68277;52.724;6.516;2024-02-26T00:01:40;3.70;;;2.88;;
78670;SDS011;68277;52.724;6.516;2024-02-26T00:04:08;2.88;;;1.83;;
78670;SDS011;68277;52.724;6.516;2024-02-26T00:06:34;3.95;;;3.00;;
78670;SDS011;68277;52.724;6.516;2024-02-26T00:09:00;4.50;;;2.92;;
78670;SDS011;68277;52.724;6.516;2024-02-26T00:11:27;2.45;;;2.10;;
78670;SDS011;68277;52.724;6.516;2024-02-26T00:13:53;3.72;;;2.28;;
78670;SDS011;68277;52.724;6.516;2024-02-26T00:16:22;4.70;;;2.13;;
78670;SDS011;68277;52.724;6.516;2024-02-26T00:18:47;5.13;;;3.25;;
78670;SDS011;68277;52.724;6.516;2024-02-26T00:21:14;2.47;;;2.28;;
78670;SDS011;68277;52.724;6.516;2024-02-26T00:26:05;2.15;;;1.90;;
78670;SDS011;68277;52.724;6.516;2024-02-26T00:28:31;2.83;;;1.65;;
78670;SDS011;68277;52.724;6.516;2024-02-26T00:30:56;3.47;;;2.15;;
78670;SDS011;68277;52.724;6.516;2024-02-26T00:33:22;8.45;;;3.40;;
78670;SDS011;68277;52.724;6.516;2024-02-26T00:35:48;2.55;;;2.15;;
78670;SDS011;68277;52.724;6.516;2024-02-26T00:38:14;3.97;;;2.95;;
78670;SDS011;68277;52.724;6.516;2024-02-26T00:40:40;6.05;;;3.85;;
78670;SDS011;68277;52.724;6.516;2024-02-26T00:43:08;4.95;;;2.47;;
78670;SDS011;68277;52.724;6.516;2024-02-26T00:45:33;5.93;;;4.00;;
78670;SDS011;68277;52.724;6.516;2024-02-26T00:47:59;5.65;;;4.10;;
78670;SDS011;68277;52.724;6.516;2024-02-26T00:50:35;9.68;;;4.75;;
78670;SDS011;68277;52.724;6.516;2024-02-26T00:53:01;5.68;;;2.97;;
78670;SDS011;68277;52.724;6.516;2024-02-26T00:55:27;3.42;;;2.88;;
78670;SDS011;68277;52.724;6.516;2024-02-26T00:57:52;10.65;;;4.55;;
78670;SDS011;68277;52.724;6.516;2024-02-26T01:00:19;7.25;;;2.80;;
78670;SDS011;68277;52.724;6.516;2024-02-26T01:02:44;6.70;;;3.72;;
78670;SDS011;68277;52.724;6.516;2024-02-26T01:05:13;19.08;;;2.92;;
78670;SDS011;68277;52.724;6.516;2024-02-26T01:07:39;14.20;;;3.55;;
78670;SDS011;68277;52.724;6.516;2024-02-26T01:10:05;10.73;;;4.13;;
78670;SDS011;68277;52.724;6.516;2024-02-26T01:12:32;5.15;;;3.65;;
78670;SDS011;68277;52.724;6.516;2024-02-26T01:14:58;5.82;;;3.10;;
78670;SDS011;68277;52.724;6.516;2024-02-26T01:17:23;4.88;;;2.40;;
78670;SDS011;68277;52.724;6.516;2024-02-26T01:19:49;3.05;;;2.03;;
78670;SDS011;68277;52.724;6.516;2024-02-26T01:22:14;6.07;;;2.45;;
78670;SDS011;68277;52.724;6.516;2024-02-26T01:24:40;6.90;;;3.28;;
78670;SDS011;68277;52.724;6.516;2024-02-26T01:27:08;7.45;;;4.18;;
78670;SDS011;68277;52.724;6.516;2024-02-26T01:29:34;5.28;;;4.13;;
78670;SDS011;68277;52.724;6.516;2024-02-26T01:32:00;2.72;;;2.38;;
78670;SDS011;68277;52.724;6.516;2024-02-26T01:34:25;7.05;;;3.90;;
78670;SDS011;68277;52.724;6.516;2024-02-26T01:36:51;6.53;;;2.13;;
78670;SDS011;68277;52.724;6.516;2024-02-26T01:39:16;4.65;;;2.85;;
78670;SDS011;68277;52.724;6.516;2024-02-26T01:41:42;9.00;;;3.33;;
78670;SDS011;68277;52.724;6.516;2024-02-26T01:44:08;5.32;;;2.63;;
78670;SDS011;68277;52.724;6.516;2024-02-26T01:46:37;6.78;;;2.72;;
78670;SDS011;68277;52.724;6.516;2024-02-26T01:49:06;4.75;;;3.30;;
78670;SDS011;68277;52.724;6.516;2024-02-26T01:51:33;7.60;;;3.40;;
78670;SDS011;68277;52.724;6.516;2024-02-26T01:56:29;4.78;;;2.72;;
78670;SDS011;68277;52.724;6.516;2024-02-26T01:59:00;5.43;;;3.58;;
78670;SDS011;68277;52.724;6.516;2024-02-26T02:01:27;6.20;;;3.13;;
78670;SDS011;68277;52.724;6.516;2024-02-26T02:03:57;5.57;;;3.38;;
78670;SDS011;68277;52.724;6.516;2024-02-26T02:06:24;11.43;;;4.05;;
78670;SDS011;68277;52.724;6.516;2024-02-26T02:08:50;5.32;;;2.75;;
78670;SDS011;68277;52.724;6.516;2024-02-26T02:11:16;7.55;;;3.30;;
78670;SDS011;68277;52.724;6.516;2024-02-26T02:13:42;5.55;;;2.65;;
78670;SDS011;68277;52.724;6.516;2024-02-26T02:16:08;7.65;;;3.33;;
78670;SDS011;68277;52.724;6.516;2024-02-26T02:18:34;3.42;;;3.13;;
78670;SDS011;68277;52.724;6.516;2024-02-26T02:21:00;5.40;;;3.33;;
78670;SDS011;68277;52.724;6.516;2024-02-26T02:23:25;6.90;;;3.22;;
78670;SDS011;68277;52.724;6.516;2024-02-26T02:25:51;5.85;;;3.85;;
78670;SDS011;68277;52.724;6.516;2024-02-26T02:28:21;3.80;;;3.15;;
78670;SDS011;68277;52.724;6.516;2024-02-26T02:30:47;4.30;;;2.15;;
78670;SDS011;68277;52.724;6.516;2024-02-26T02:33:14;5.43;;;3.33;;
78670;SDS011;68277;52.724;6.516;2024-02-26T02:35:40;8.40;;;4.18;;
78670;SDS011;68277;52.724;6.516;2024-02-26T02:38:06;2.03;;;1.85;;
78670;SDS011;68277;52.724;6.516;2024-02-26T02:40:32;4.43;;;2.65;;
78670;SDS011;68277;52.724;6.516;2024-02-26T02:42:58;4.38;;;3.85;;
78670;SDS011;68277;52.724;6.516;2024-02-26T02:45:25;5.53;;;3.10;;
78670;SDS011;68277;52.724;6.516;2024-02-26T02:47:51;5.05;;;2.83;;
78670;SDS011;68277;52.724;6.516;2024-02-26T02:50:16;5.55;;;2.63;;
78670;SDS011;68277;52.724;6.516;2024-02-26T02:52:42;3.85;;;3.45;;
78670;SDS011;68277;52.724;6.516;2024-02-26T02:55:09;8.38;;;3.88;;
78670;SDS011;68277;52.724;6.516;2024-02-26T02:57:34;8.95;;;3.13;;
78670;SDS011;68277;52.724;6.516;2024-02-26T03:02:46;9.27;;;4.13;;
78670;SDS011;68277;52.724;6.516;2024-02-26T03:05:12;9.77;;;3.55;;
78670;SDS011;68277;52.724;6.516;2024-02-26T03:07:37;6.45;;;3.60;;
78670;SDS011;68277;52.724;6.516;2024-02-26T03:10:03;6.65;;;4.28;;
78670;SDS011;68277;52.724;6.516;2024-02-26T03:12:29;5.78;;;2.90;;
78670;SDS011;68277;52.724;6.516;2024-02-26T03:14:55;6.95;;;4.70;;
78670;SDS011;68277;52.724;6.516;2024-02-26T03:17:21;9.95;;;3.33;;
78670;SDS011;68277;52.724;6.516;2024-02-26T03:19:46;9.98;;;4.72;;
78670;SDS011;68277;52.724;6.516;2024-02-26T03:22:13;7.68;;;3.75;;
78670;SDS011;68277;52.724;6.516;2024-02-26T03:24:38;13.07;;;4.05;;
78670;SDS011;68277;52.724;6.516;2024-02-26T03:27:04;9.40;;;4.20;;
78670;SDS011;68277;52.724;6.516;2024-02-26T03:29:37;8.35;;;5.18;;
78670;SDS011;68277;52.724;6.516;2024-02-26T03:32:03;7.63;;;2.60;;
78670;SDS011;68277;52.724;6.516;2024-02-26T03:34:29;6.95;;;4.65;;
78670;SDS011;68277;52.724;6.516;2024-02-26T03:39:22;7.07;;;2.55;;
78670;SDS011;68277;52.724;6.516;2024-02-26T03:41:47;8.25;;;3.30;;
78670;SDS011;68277;52.724;6.516;2024-02-26T03:44:13;9.15;;;3.80;;
78670;SDS011;68277;52.724;6.516;2024-02-26T03:46:39;7.65;;;4.47;;
78670;SDS011;68277;52.724;6.516;2024-02-26T03:49:04;5.53;;;2.30;;
78670;SDS011;68277;52.724;6.516;2024-02-26T03:51:30;7.40;;;3.83;;
78670;SDS011;68277;52.724;6.516;2024-02-26T03:53:58;6.05;;;2.55;;
78670;SDS011;68277;52.724;6.516;2024-02-26T03:56:23;11.57;;;6.10;;
78670;SDS011;68277;52.724;6.516;2024-02-26T03:58:50;10.65;;;3.70;;
78670;SDS011;68277;52.724;6.516;2024-02-26T04:01:16;7.57;;;4.70;;
78670;SDS011;68277;52.724;6.516;2024-02-26T04:03:41;8.48;;;4.85;;
78670;SDS011;68277;52.724;6.516;2024-02-26T04:06:10;10.00;;;4.32;;
78670;SDS011;68277;52.724;6.516;2024-02-26T04:08:36;6.15;;;3.45;;
78670;SDS011;68277;52.724;6.516;2024-02-26T04:11:03;8.13;;;4.05;;
78670;SDS011;68277;52.724;6.516;2024-02-26T04:13:36;13.02;;;5.80;;
78670;SDS011;68277;52.724;6.516;2024-02-26T04:16:05;21.58;;;6.85;;
78670;SDS011;68277;52.724;6.516;2024-02-26T04:18:34;8.38;;;5.35;;
78670;SDS011;68277;52.724;6.516;2024-02-26T04:20:59;13.23;;;5.03;;
78670;SDS011;68277;52.724;6.516;2024-02-26T04:23:25;8.13;;;5.65;;
78670;SDS011;68277;52.724;6.516;2024-02-26T04:25:50;13.27;;;4.80;;
78670;SDS011;68277;52.724;6.516;2024-02-26T04:28:18;13.05;;;4.60;;
78670;SDS011;68277;52.724;6.516;2024-02-26T04:30:46;16.35;;;7.13;;
78670;SDS011;68277;52.724;6.516;2024-02-26T04:33:13;10.98;;;5.00;;
78670;SDS011;68277;52.724;6.516;2024-02-26T04:35:39;13.35;;;4.35;;
78670;SDS011;68277;52.724;6.516;2024-02-26T04:38:04;10.30;;;5.57;;
78670;SDS011;68277;52.724;6.516;2024-02-26T04:40:31;5.80;;;3.50;;
78670;SDS011;68277;52.724;6.516;2024-02-26T04:42:56;9.98;;;5.85;;
78670;SDS011;68277;52.724;6.516;2024-02-26T04:45:22;9.48;;;5.10;;
78670;SDS011;68277;52.724;6.516;2024-02-26T04:47:48;12.07;;;4.53;;
78670;SDS011;68277;52.724;6.516;2024-02-26T04:50:13;15.77;;;6.88;;
78670;SDS011;68277;52.724;6.516;2024-02-26T04:52:39;9.77;;;5.97;;
78670;SDS011;68277;52.724;6.516;2024-02-26T04:55:05;17.90;;;7.03;;
78670;SDS011;68277;52.724;6.516;2024-02-26T04:57:32;11.15;;;4.38;;
78670;SDS011;68277;52.724;6.516;2024-02-26T04:59:58;13.48;;;6.47;;
78670;SDS011;68277;52.724;6.516;2024-02-26T05:02:23;9.70;;;3.70;;
78670;SDS011;68277;52.724;6.516;2024-02-26T05:04:49;9.00;;;4.47;;
78670;SDS011;68277;52.724;6.516;2024-02-26T05:07:15;11.65;;;5.43;;
78670;SDS011;68277;52.724;6.516;2024-02-26T05:09:42;11.05;;;4.57;;
78670;SDS011;68277;52.724;6.516;2024-02-26T05:12:09;17.83;;;5.47;;
78670;SDS011;68277;52.724;6.516;2024-02-26T05:14:35;13.73;;;5.32;;
78670;SDS011;68277;52.724;6.516;2024-02-26T05:17:00;7.18;;;5.50;;
78670;SDS011;68277;52.724;6.516;2024-02-26T05:19:26;9.45;;;5.03;;
78670;SDS011;68277;52.724;6.516;2024-02-26T05:24:42;7.63;;;6.15;;
78670;SDS011;68277;52.724;6.516;2024-02-26T05:27:07;6.38;;;4.60;;
78670;SDS011;68277;52.724;6.516;2024-02-26T05:29:33;10.30;;;6.55;;
78670;SDS011;68277;52.724;6.516;2024-02-26T05:31:58;9.02;;;2.55;;
78670;SDS011;68277;52.724;6.516;2024-02-26T05:34:24;11.00;;;5.05;;
78670;SDS011;68277;52.724;6.516;2024-02-26T05:36:49;11.95;;;5.15;;
78670;SDS011;68277;52.724;6.516;2024-02-26T05:39:15;11.10;;;5.25;;
78670;SDS011;68277;52.724;6.516;2024-02-26T05:41:42;8.98;;;3.88;;
78670;SDS011;68277;52.724;6.516;2024-02-26T05:44:08;7.10;;;4.82;;
78670;SDS011;68277;52.724;6.516;2024-02-26T05:46:35;8.57;;;4.18;;
78670;SDS011;68277;52.724;6.516;2024-02-26T05:49:04;6.35;;;4.35;;
78670;SDS011;68277;52.724;6.516;2024-02-26T05:51:29;5.93;;;3.25;;
78670;SDS011;68277;52.724;6.516;2024-02-26T05:53:55;9.35;;;3.92;;
78670;SDS011;68277;52.724;6.516;2024-02-26T05:56:23;6.55;;;3.70;;
78670;SDS011;68277;52.724;6.516;2024-02-26T05:58:49;6.07;;;3.45;;
78670;SDS011;68277;52.724;6.516;2024-02-26T06:01:15;8.52;;;4.38;;
78670;SDS011;68277;52.724;6.516;2024-02-26T06:03:42;5.82;;;3.30;;
78670;SDS011;68277;52.724;6.516;2024-02-26T06:06:08;5.35;;;2.08;;
78670;SDS011;68277;52.724;6.516;2024-02-26T06:08:33;7.45;;;3.25;;
78670;SDS011;68277;52.724;6.516;2024-02-26T06:11:04;5.68;;;2.58;;
78670;SDS011;68277;52.724;6.516;2024-02-26T06:13:30;4.45;;;2.83;;
78670;SDS011;68277;52.724;6.516;2024-02-26T06:15:56;4.85;;;3.42;;
78670;SDS011;68277;52.724;6.516;2024-02-26T06:18:23;3.55;;;1.88;;
78670;SDS011;68277;52.724;6.516;2024-02-26T06:20:49;6.15;;;3.75;;
78670;SDS011;68277;52.724;6.516;2024-02-26T06:23:14;5.57;;;2.40;;
78670;SDS011;68277;52.724;6.516;2024-02-26T06:25:40;6.38;;;3.78;;
78670;SDS011;68277;52.724;6.516;2024-02-26T06:28:07;4.57;;;3.15;;
78670;SDS011;68277;52.724;6.516;2024-02-26T06:30:33;5.18;;;3.17;;
78670;SDS011;68277;52.724;6.516;2024-02-26T06:32:59;5.28;;;2.70;;
78670;SDS011;68277;52.724;6.516;2024-02-26T06:35:25;6.63;;;2.97;;
78670;SDS011;68277;52.724;6.516;2024-02-26T06:37:52;5.55;;;3.17;;
78670;SDS011;68277;52.724;6.516;2024-02-26T06:40:18;6.07;;;3.85;;
78670;SDS011;68277;52.724;6.516;2024-02-26T06:42:44;5.15;;;3.10;;
78670;SDS011;68277;52.724;6.516;2024-02-26T06:47:37;4.57;;;2.60;;
78670;SDS011;68277;52.724;6.516;2024-02-26T06:50:03;5.72;;;2.55;;
78670;SDS011;68277;52.724;6.516;2024-02-26T06:52:29;6.05;;;3.08;;
78670;SDS011;68277;52.724;6.516;2024-02-26T06:54:54;5.75;;;2.85;;
78670;SDS011;68277;52.724;6.516;2024-02-26T06:57:20;7.80;;;2.60;;
78670;SDS011;68277;52.724;6.516;2024-02-26T06:59:45;2.80;;;2.15;;
78670;SDS011;68277;52.724;6.516;2024-02-26T07:02:14;2.92;;;2.20;;
78670;SDS011;68277;52.724;6.516;2024-02-26T07:04:39;3.30;;;2.03;;
78670;SDS011;68277;52.724;6.516;2024-02-26T07:07:07;3.08;;;2.13;;
78670;SDS011;68277;52.724;6.516;2024-02-26T07:09:33;3.67;;;2.17;;
78670;SDS011;68277;52.724;6.516;2024-02-26T07:11:58;6.20;;;3.22;;
78670;SDS011;68277;52.724;6.516;2024-02-26T07:14:24;4.18;;;2.13;;
78670;SDS011;68277;52.724;6.516;2024-02-26T07:16:50;4.13;;;2.10;;
78670;SDS011;68277;52.724;6.516;2024-02-26T07:19:16;4.28;;;2.30;;
78670;SDS011;68277;52.724;6.516;2024-02-26T07:21:41;2.97;;;2.10;;
78670;SDS011;68277;52.724;6.516;2024-02-26T07:24:07;4.45;;;2.28;;
78670;SDS011;68277;52.724;6.516;2024-02-26T07:26:33;5.43;;;3.05;;
78670;SDS011;68277;52.724;6.516;2024-02-26T07:28:59;2.83;;;2.13;;
78670;SDS011;68277;52.724;6.516;2024-02-26T07:31:25;1.77;;;1.58;;
78670;SDS011;68277;52.724;6.516;2024-02-26T07:33:51;3.15;;;2.72;;
78670;SDS011;68277;52.724;6.516;2024-02-26T07:36:17;1.45;;;0.98;;
78670;SDS011;68277;52.724;6.516;2024-02-26T07:38:42;2.17;;;1.95;;
78670;SDS011;68277;52.724;6.516;2024-02-26T07:41:08;3.45;;;1.50;;
78670;SDS011;68277;52.724;6.516;2024-02-26T07:43:34;5.97;;;2.55;;
78670;SDS011;68277;52.724;6.516;2024-02-26T07:46:00;3.78;;;2.45;;
78670;SDS011;68277;52.724;6.516;2024-02-26T07:48:25;2.95;;;2.65;;
78670;SDS011;68277;52.724;6.516;2024-02-26T07:50:51;6.93;;;1.95;;
78670;SDS011;68277;52.724;6.516;2024-02-26T07:53:17;5.20;;;1.83;;
78670;SDS011;68277;52.724;6.516;2024-02-26T07:55:42;1.63;;;1.38;;
78670;SDS011;68277;52.724;6.516;2024-02-26T07:58:08;3.05;;;1.50;;
78670;SDS011;68277;52.724;6.516;2024-02-26T08:00:33;6.68;;;2.20;;
78670;SDS011;68277;52.724;6.516;2024-02-26T08:02:59;3.05;;;1.63;;
78670;SDS011;68277;52.724;6.516;2024-02-26T08:05:28;3.45;;;2.40;;
78670;SDS011;68277;52.724;6.516;2024-02-26T08:07:57;3.65;;;2.63;;
78670;SDS011;68277;52.724;6.516;2024-02-26T08:10:22;3.63;;;1.45;;
78670;SDS011;68277;52.724;6.516;2024-02-26T08:12:51;3.30;;;1.92;;
78670;SDS011;68277;52.724;6.516;2024-02-26T08:15:17;4.22;;;2.03;;
78670;SDS011;68277;52.724;6.516;2024-02-26T08:17:51;5.03;;;2.08;;
78670;SDS011;68277;52.724;6.516;2024-02-26T08:20:17;3.55;;;1.83;;
78670;SDS011;68277;52.724;6.516;2024-02-26T08:22:45;2.88;;;1.67;;
78670;SDS011;68277;52.724;6.516;2024-02-26T08:25:11;8.38;;;2.00;;
78670;SDS011;68277;52.724;6.516;2024-02-26T08:27:36;11.38;;;1.60;;
78670;SDS011;68277;52.724;6.516;2024-02-26T08:30:02;2.80;;;1.80;;
78670;SDS011;68277;52.724;6.516;2024-02-26T08:32:28;5.75;;;2.65;;
78670;SDS011;68277;52.724;6.516;2024-02-26T08:34:53;4.05;;;1.60;;
78670;SDS011;68277;52.724;6.516;2024-02-26T08:37:19;4.85;;;1.70;;
78670;SDS011;68277;52.724;6.516;2024-02-26T08:39:45;3.25;;;2.13;;
78670;SDS011;68277;52.724;6.516;2024-02-26T08:42:11;4.18;;;1.95;;
78670;SDS011;68277;52.724;6.516;2024-02-26T08:44:36;4.68;;;2.60;;
78670;SDS011;68277;52.724;6.516;2024-02-26T08:47:02;3.28;;;2.00;;
78670;SDS011;68277;52.724;6.516;2024-02-26T08:49:27;4.30;;;1.92;;
78670;SDS011;68277;52.724;6.516;2024-02-26T08:51:53;1.85;;;1.60;;
78670;SDS011;68277;52.724;6.516;2024-02-26T08:54:18;1.60;;;1.13;;
78670;SDS011;68277;52.724;6.516;2024-02-26T08:56:44;3.55;;;1.73;;
78670;SDS011;68277;52.724;6.516;2024-02-26T08:59:09;0.95;;;0.70;;
78670;SDS011;68277;52.724;6.516;2024-02-26T09:01:35;2.95;;;1.38;;
78670;SDS011;68277;52.724;6.516;2024-02-26T09:04:00;2.70;;;2.33;;
78670;SDS011;68277;52.724;6.516;2024-02-26T09:06:25;3.75;;;2.13;;
78670;SDS011;68277;52.724;6.516;2024-02-26T09:08:51;4.22;;;1.95;;
78670;SDS011;68277;52.724;6.516;2024-02-26T09:11:17;4.30;;;1.83;;
78670;SDS011;68277;52.724;6.516;2024-02-26T09:13:42;2.08;;;0.90;;
78670;SDS011;68277;52.724;6.516;2024-02-26T09:16:08;3.45;;;1.17;;
78670;SDS011;68277;52.724;6.516;2024-02-26T09:18:33;4.90;;;2.22;;
78670;SDS011;68277;52.724;6.516;2024-02-26T09:20:59;1.40;;;1.23;;
78670;SDS011;68277;52.724;6.516;2024-02-26T09:23:24;1.80;;;1.58;;
78670;SDS011;68277;52.724;6.516;2024-02-26T09:25:50;2.13;;;1.70;;
78670;SDS011;68277;52.724;6.516;2024-02-26T09:28:15;2.95;;;1.92;;
78670;SDS011;68277;52.724;6.516;2024-02-26T09:30:44;3.05;;;2.35;;
78670;SDS011;68277;52.724;6.516;2024-02-26T09:33:10;3.05;;;1.63;;
78670;SDS011;68277;52.724;6.516;2024-02-26T09:35:36;3.03;;;1.35;;
78670;SDS011;68277;52.724;6.516;2024-02-26T09:38:02;2.60;;;1.73;;
78670;SDS011;68277;52.724;6.516;2024-02-26T09:40:27;4.43;;;2.33;;
78670;SDS011;68277;52.724;6.516;2024-02-26T09:42:53;3.42;;;1.75;;
78670;SDS011;68277;52.724;6.516;2024-02-26T09:45:26;2.65;;;1.63;;
78670;SDS011;68277;52.724;6.516;2024-02-26T09:47:54;5.28;;;2.97;;
78670;SDS011;68277;52.724;6.516;2024-02-26T09:50:21;4.95;;;2.35;;
78670;SDS011;68277;52.724;6.516;2024-02-26T09:52:50;2.70;;;1.30;;
78670;SDS011;68277;52.724;6.516;2024-02-26T09:55:17;1.50;;;1.25;;
78670;SDS011;68277;52.724;6.516;2024-02-26T09:57:45;6.80;;;1.60;;
78670;SDS011;68277;52.724;6.516;2024-02-26T10:00:18;2.78;;;1.67;;
78670;SDS011;68277;52.724;6.516;2024-02-26T10:02:46;2.88;;;1.17;;
78670;SDS011;68277;52.724;6.516;2024-02-26T10:05:18;1.55;;;1.25;;
78670;SDS011;68277;52.724;6.516;2024-02-26T10:07:47;2.05;;;1.27;;
78670;SDS011;68277;52.724;6.516;2024-02-26T10:10:13;4.15;;;2.25;;
78670;SDS011;68277;52.724;6.516;2024-02-26T10:12:40;3.88;;;1.80;;
78670;SDS011;68277;52.724;6.516;2024-02-26T10:15:05;4.05;;;1.92;;
78670;SDS011;68277;52.724;6.516;2024-02-26T10:17:31;3.65;;;1.55;;
78670;SDS011;68277;52.724;6.516;2024-02-26T10:20:14;4.63;;;1.77;;
78670;SDS011;68277;52.724;6.516;2024-02-26T10:22:41;3.10;;;1.83;;
78670;SDS011;68277;52.724;6.516;2024-02-26T10:25:08;2.78;;;1.92;;
78670;SDS011;68277;52.724;6.516;2024-02-26T10:27:34;6.18;;;2.33;;
78670;SDS011;68277;52.724;6.516;2024-02-26T10:30:03;4.00;;;1.80;;
78670;SDS011;68277;52.724;6.516;2024-02-26T10:32:30;1.95;;;1.38;;
78670;SDS011;68277;52.724;6.516;2024-02-26T10:37:23;1.52;;;1.42;;
78670;SDS011;68277;52.724;6.516;2024-02-26T10:39:50;2.47;;;1.52;;
78670;SDS011;68277;52.724;6.516;2024-02-26T10:42:16;5.25;;;2.00;;
78670;SDS011;68277;52.724;6.516;2024-02-26T10:44:44;5.18;;;1.52;;
78670;SDS011;68277;52.724;6.516;2024-02-26T10:47:11;3.67;;;2.20;;
78670;SDS011;68277;52.724;6.516;2024-02-26T10:49:37;4.22;;;1.77;;
78670;SDS011;68277;52.724;6.516;2024-02-26T10:52:04;3.97;;;2.10;;
78670;SDS011;68277;52.724;6.516;2024-02-26T10:54:32;2.33;;;1.83;;
78670;SDS011;68277;52.724;6.516;2024-02-26T10:56:59;3.95;;;1.65;;
78670;SDS011;68277;52.724;6.516;2024-02-26T10:59:26;3.97;;;1.70;;
78670;SDS011;68277;52.724;6.516;2024-02-26T11:01:52;2.83;;;2.38;;
78670;SDS011;68277;52.724;6.516;2024-02-26T11:04:19;7.15;;;3.00;;
78670;SDS011;68277;52.724;6.516;2024-02-26T11:06:47;4.95;;;2.25;;
78670;SDS011;68277;52.724;6.516;2024-02-26T11:09:15;3.20;;;2.55;;
78670;SDS011;68277;52.724;6.516;2024-02-26T11:11:41;3.05;;;1.23;;
78670;SDS011;68277;52.724;6.516;2024-02-26T11:14:09;4.22;;;1.55;;
78670;SDS011;68277;52.724;6.516;2024-02-26T11:16:36;4.65;;;2.20;;
78670;SDS011;68277;52.724;6.516;2024-02-26T11:19:04;5.82;;;2.75;;
78670;SDS011;68277;52.724;6.516;2024-02-26T11:21:34;3.15;;;1.85;;
78670;SDS011;68277;52.724;6.516;2024-02-26T11:24:09;3.17;;;1.77;;
78670;SDS011;68277;52.724;6.516;2024-02-26T11:27:11;5.93;;;2.05;;
78670;SDS011;68277;52.724;6.516;2024-02-26T11:29:38;2.25;;;1.45;;
78670;SDS011;68277;52.724;6.516;2024-02-26T11:32:10;4.18;;;2.10;;
78670;SDS011;68277;52.724;6.516;2024-02-26T11:34:36;6.75;;;3.15;;
78670;SDS011;68277;52.724;6.516;2024-02-26T11:37:10;3.28;;;2.13;;
78670;SDS011;68277;52.724;6.516;2024-02-26T11:39:36;3.60;;;2.28;;
78670;SDS011;68277;52.724;6.516;2024-02-26T11:42:06;2.92;;;1.60;;
78670;SDS011;68277;52.724;6.516;2024-02-26T11:44:33;3.20;;;2.25;;
78670;SDS011;68277;52.724;6.516;2024-02-26T11:47:21;4.07;;;2.25;;
78670;SDS011;68277;52.724;6.516;2024-02-26T11:49:48;4.05;;;2.42;;
78670;SDS011;68277;52.724;6.516;2024-02-26T11:52:14;4.40;;;1.73;;
78670;SDS011;68277;52.724;6.516;2024-02-26T11:54:53;3.78;;;2.10;;
78670;SDS011;68277;52.724;6.516;2024-02-26T12:07:54;5.20;;;2.35;;
78670;SDS011;68277;52.724;6.516;2024-02-26T12:13:03;4.30;;;2.63;;
78670;SDS011;68277;52.724;6.516;2024-02-26T12:15:43;2.55;;;1.27;;
78670;SDS011;68277;52.724;6.516;2024-02-26T12:18:22;2.42;;;2.22;;
78670;SDS011;68277;52.724;6.516;2024-02-26T12:21:09;1.88;;;1.42;;
78670;SDS011;68277;52.724;6.516;2024-02-26T12:23:38;3.58;;;2.00;;
78670;SDS011;68277;52.724;6.516;2024-02-26T12:26:03;3.58;;;2.10;;
78670;SDS011;68277;52.724;6.516;2024-02-26T12:28:32;3.10;;;1.55;;
78670;SDS011;68277;52.724;6.516;2024-02-26T12:30:58;4.40;;;2.97;;
78670;SDS011;68277;52.724;6.516;2024-02-26T12:33:25;4.10;;;2.38;;
78670;SDS011;68277;52.724;6.516;2024-02-26T12:35:52;3.30;;;1.60;;
78670;SDS011;68277;52.724;6.516;2024-02-26T12:38:18;3.17;;;2.20;;
78670;SDS011;68277;52.724;6.516;2024-02-26T12:40:49;3.60;;;2.42;;
78670;SDS011;68277;52.724;6.516;2024-02-26T12:43:17;4.55;;;2.45;;
78670;SDS011;68277;52.724;6.516;2024-02-26T12:45:43;4.00;;;1.80;;
78670;SDS011;68277;52.724;6.516;2024-02-26T12:48:12;3.38;;;2.35;;
78670;SDS011;68277;52.724;6.516;2024-02-26T12:50:38;3.50;;;2.38;;
78670;SDS011;68277;52.724;6.516;2024-02-26T12:53:04;4.10;;;2.15;;
78670;SDS011;68277;52.724;6.516;2024-02-26T12:55:32;4.97;;;1.92;;
78670;SDS011;68277;52.724;6.516;2024-02-26T12:58:00;2.45;;;1.40;;
78670;SDS011;68277;52.724;6.516;2024-02-26T13:00:26;1.50;;;1.20;;
78670;SDS011;68277;52.724;6.516;2024-02-26T13:02:53;3.85;;;2.00;;
78670;SDS011;68277;52.724;6.516;2024-02-26T13:05:20;4.97;;;1.90;;
78670;SDS011;68277;52.724;6.516;2024-02-26T13:07:47;4.03;;;2.10;;
78670;SDS011;68277;52.724;6.516;2024-02-26T13:10:13;2.88;;;1.75;;
78670;SDS011;68277;52.724;6.516;2024-02-26T13:12:46;2.65;;;1.63;;
78670;SDS011;68277;52.724;6.516;2024-02-26T13:15:18;6.13;;;1.90;;
78670;SDS011;68277;52.724;6.516;2024-02-26T13:17:45;3.47;;;1.98;;
78670;SDS011;68277;52.724;6.516;2024-02-26T13:20:12;5.25;;;3.08;;
78670;SDS011;68277;52.724;6.516;2024-02-26T13:22:49;10.13;;;4.55;;
78670;SDS011;68277;52.724;6.516;2024-02-26T13:25:19;11.65;;;5.03;;
78670;SDS011;68277;52.724;6.516;2024-02-26T13:27:45;13.38;;;4.47;;
78670;SDS011;68277;52.724;6.516;2024-02-26T13:30:11;6.50;;;2.38;;
78670;SDS011;68277;52.724;6.516;2024-02-26T13:32:39;6.90;;;3.95;;
78670;SDS011;68277;52.724;6.516;2024-02-26T13:35:06;3.03;;;2.15;;
78670;SDS011;68277;52.724;6.516;2024-02-26T13:37:35;3.58;;;2.30;;
78670;SDS011;68277;52.724;6.516;2024-02-26T13:40:11;5.45;;;2.45;;
78670;SDS011;68277;52.724;6.516;2024-02-26T13:42:37;8.40;;;1.65;;
78670;SDS011;68277;52.724;6.516;2024-02-26T13:45:03;3.20;;;2.88;;
78670;SDS011;68277;52.724;6.516;2024-02-26T13:47:36;4.38;;;2.17;;
78670;SDS011;68277;52.724;6.516;2024-02-26T13:50:02;3.55;;;2.05;;
78670;SDS011;68277;52.724;6.516;2024-02-26T13:52:28;3.63;;;1.55;;
78670;SDS011;68277;52.724;6.516;2024-02-26T13:54:53;3.53;;;2.17;;
78670;SDS011;68277;52.724;6.516;2024-02-26T13:57:19;5.20;;;2.22;;
78670;SDS011;68277;52.724;6.516;2024-02-26T13:59:45;2.67;;;2.20;;
78670;SDS011;68277;52.724;6.516;2024-02-26T14:02:11;3.13;;;2.03;;
78670;SDS011;68277;52.724;6.516;2024-02-26T14:04:37;4.50;;;1.90;;
78670;SDS011;68277;52.724;6.516;2024-02-26T14:07:03;3.22;;;2.35;;
78670;SDS011;68277;52.724;6.516;2024-02-26T14:09:29;4.03;;;1.98;;
78670;SDS011;68277;52.724;6.516;2024-02-26T14:11:55;4.50;;;2.35;;
78670;SDS011;68277;52.724;6.516;2024-02-26T14:14:20;3.00;;;1.73;;
78670;SDS011;68277;52.724;6.516;2024-02-26T14:16:47;4.07;;;2.50;;
78670;SDS011;68277;52.724;6.516;2024-02-26T14:19:13;6.28;;;3.22;;
78670;SDS011;68277;52.724;6.516;2024-02-26T14:21:39;3.30;;;2.08;;
78670;SDS011;68277;52.724;6.516;2024-02-26T14:24:04;3.30;;;1.95;;
78670;SDS011;68277;52.724;6.516;2024-02-26T14:26:30;2.50;;;1.92;;
78670;SDS011;68277;52.724;6.516;2024-02-26T14:28:56;3.13;;;2.33;;
78670;SDS011;68277;52.724;6.516;2024-02-26T14:31:21;3.53;;;1.95;;
78670;SDS011;68277;52.724;6.516;2024-02-26T14:33:47;4.20;;;2.42;;
78670;SDS011;68277;52.724;6.516;2024-02-26T14:36:13;2.58;;;1.88;;
78670;SDS011;68277;52.724;6.516;2024-02-26T14:38:39;3.75;;;2.20;;
78670;SDS011;68277;52.724;6.516;2024-02-26T14:41:05;4.68;;;2.00;;
78670;SDS011;68277;52.724;6.516;2024-02-26T14:43:31;3.78;;;1.92;;
78670;SDS011;68277;52.724;6.516;2024-02-26T14:46:01;3.60;;;1.85;;
78670;SDS011;68277;52.724;6.516;2024-02-26T14:48:27;5.90;;;3.03;;
78670;SDS011;68277;52.724;6.516;2024-02-26T14:50:52;6.55;;;2.55;;
78670;SDS011;68277;52.724;6.516;2024-02-26T14:53:18;4.28;;;2.72;;
78670;SDS011;68277;52.724;6.516;2024-02-26T14:55:46;5.75;;;3.35;;
78670;SDS011;68277;52.724;6.516;2024-02-26T14:58:12;2.67;;;2.00;;
78670;SDS011;68277;52.724;6.516;2024-02-26T15:00:40;4.25;;;2.42;;
78670;SDS011;68277;52.724;6.516;2024-02-26T15:03:06;5.57;;;2.45;;
78670;SDS011;68277;52.724;6.516;2024-02-26T15:05:35;4.43;;;3.05;;
78670;SDS011;68277;52.724;6.516;2024-02-26T15:08:01;3.78;;;2.33;;
78670;SDS011;68277;52.724;6.516;2024-02-26T15:10:28;6.38;;;2.72;;
78670;SDS011;68277;52.724;6.516;2024-02-26T15:12:56;7.25;;;3.10;;
78670;SDS011;68277;52.724;6.516;2024-02-26T15:15:22;4.43;;;2.92;;